LAS weather

McCarran International Airport
Las Vegas, Nevada, United States

Public forecast

Using degrees Fahrenheit for public forecast. Weather courtesy of forecast.io.

Current aviation weather report (METAR) for McCarran International Airport

Retrieved 2020/05/27 07:56 UTC (2 hours ago):

KLAS 270756Z 23005KT 10SM FEW250 30/M01 A2985 RMK AO2 SLP077 T03001006 403780206

Aviation forecast (TAF) for McCarran International Airport

Retrieved 2020/05/27 06:22 UTC (3 hours ago):

TAF KLAS 270520Z 2706/2812 22005KT P6SM FEW250 FM271500 VRB04KT P6SM SKC FM272100 14008KT P6SM FEW250 FM280300 22005KT P6SM FEW250